Barnes City, Iowa
Current Conditions -  °F | °C
As of 6:15 AM on Friday 19 Dec 2014 (Local Time) from KOOA Reporting Station
Overcast Overcast  
Wind Chill: 21°   Ceiling: 5000
Heat Index: 26°   Visibility: 10mi
Dew Point: 24°   Wind: 5mph
Humidity: 90%   Direction: 130°SE
Pressure: 30.28"   Gusts: NA
Location:  41.51°N, 92.47°W
Report Text: KOOA 191215Z AUTO 13004KT 10SM OVC050 M03/M05 A3028 RMK AO2 T10311046
Loading
Personal Weather Stations






























Interactive Weather Map New forecast layout! Learn more

10-Day Weather Forecast

Advertisements
Track Severe Weather on mobile